Time;durP1;ratioP1;P1;durP2;ratioP2;P2;SDS_P1;SDS_P2;PMS_P1;PMS_P2;Temp;Humidity;BMP_temperature;BMP_pressure;BME280_temperature;BME280_humidity;BME280_pressure;Samples;Min_cycle;Max_cycle;Signal;HPM_P1;HPM_P2
2020/12/20 00:00:24;;;;;;;13.57;4.00;;;11.00;99.90;;;;;;4979249;28;20182;-86
2020/12/20 00:02:54;;;;;;;12.45;4.95;;;11.10;99.90;;;;;;4981416;28;20174;-86
2020/12/20 00:05:21;;;;;;;11.00;4.93;;;11.10;99.90;;;;;;4980336;28;20643;-87
2020/12/20 00:07:48;;;;;;;11.63;4.90;;;11.10;99.90;;;;;;4962808;28;20321;-87
2020/12/20 00:10:14;;;;;;;17.83;4.40;;;11.10;99.90;;;;;;4978567;28;20178;-88
2020/12/20 00:12:40;;;;;;;16.77;4.13;;;11.20;99.90;;;;;;4980385;28;20181;-87
2020/12/20 00:15:06;;;;;;;6.93;4.13;;;11.20;99.90;;;;;;4981763;28;20701;-86
2020/12/20 00:17:32;;;;;;;17.75;4.75;;;11.10;99.90;;;;;;4982152;28;20206;-87
2020/12/20 00:19:58;;;;;;;15.30;4.22;;;11.10;99.90;;;;;;4996876;28;20186;-86
2020/12/20 00:22:23;;;;;;;10.38;4.32;;;11.10;99.90;;;;;;4995462;28;20238;-85
2020/12/20 00:24:49;;;;;;;14.38;4.95;;;11.10;99.90;;;;;;4976316;28;20566;-86
2020/12/20 00:27:15;;;;;;;17.60;5.13;;;11.10;99.90;;;;;;4982230;28;20178;-87
2020/12/20 00:29:41;;;;;;;18.50;4.85;;;11.10;99.90;;;;;;4980577;28;20273;-87
2020/12/20 00:32:09;;;;;;;12.40;4.72;;;11.10;99.90;;;;;;4981530;28;20178;-86
2020/12/20 00:34:36;;;;;;;18.85;5.32;;;11.10;99.90;;;;;;4980917;28;20174;-87
2020/12/20 00:37:02;;;;;;;15.60;5.20;;;11.10;99.90;;;;;;4995265;28;20157;-86
2020/12/20 00:39:27;;;;;;;13.80;5.43;;;11.10;99.90;;;;;;4967183;28;20186;-88
2020/12/20 00:41:56;;;;;;;20.02;5.38;;;11.10;99.90;;;;;;4976895;28;20193;-87
2020/12/20 00:44:23;;;;;;;12.15;4.75;;;11.10;99.90;;;;;;4985584;28;20206;-85
2020/12/20 00:46:50;;;;;;;15.45;4.38;;;11.20;99.90;;;;;;4969076;28;20186;-86
2020/12/20 00:49:16;;;;;;;11.23;4.38;;;11.10;99.90;;;;;;4984301;28;20308;-87
2020/12/20 00:51:41;;;;;;;12.82;4.35;;;11.10;99.90;;;;;;4969061;28;20213;-87
2020/12/20 00:54:07;;;;;;;11.48;4.97;;;11.20;99.90;;;;;;4966033;28;20182;-86
2020/12/20 00:56:34;;;;;;;15.63;4.22;;;11.10;99.90;;;;;;4966098;28;20268;-86
2020/12/20 00:58:59;;;;;;;15.15;4.63;;;11.20;99.90;;;;;;4984910;28;20229;-87
2020/12/20 01:01:25;;;;;;;10.45;5.07;;;11.20;99.90;;;;;;4969163;28;20178;-86
2020/12/20 01:03:51;;;;;;;15.27;4.57;;;11.20;99.90;;;;;;4969073;28;20171;-89
2020/12/20 01:06:19;;;;;;;8.70;4.32;;;11.10;99.90;;;;;;4985432;28;20224;-87
2020/12/20 01:08:45;;;;;;;12.48;4.80;;;11.10;99.90;;;;;;4983697;28;20213;-86
2020/12/20 01:11:11;;;;;;;15.77;4.43;;;11.20;99.90;;;;;;4945873;28;20182;-86
2020/12/20 01:13:45;;;;;;;9.07;4.63;;;11.20;99.90;;;;;;4977874;28;20186;-87
2020/12/20 01:16:22;;;;;;;14.63;5.85;;;11.20;99.90;;;;;;4962702;28;20170;-86
2020/12/20 01:18:48;;;;;;;14.27;4.43;;;11.20;99.90;;;;;;4962686;28;20212;-86
2020/12/20 01:21:15;;;;;;;10.43;4.43;;;11.20;99.90;;;;;;4978390;28;20170;-86
2020/12/20 01:23:41;;;;;;;18.10;5.43;;;11.20;99.90;;;;;;4945204;28;20166;-87
2020/12/20 01:26:06;;;;;;;16.95;5.25;;;11.20;99.90;;;;;;4961275;28;20189;-86
2020/12/20 01:28:33;;;;;;;12.77;4.57;;;11.20;99.90;;;;;;4978673;28;20233;-87
2020/12/20 01:31:00;;;;;;;19.38;6.00;;;11.20;99.90;;;;;;4977435;28;20186;-87
2020/12/20 01:33:26;;;;;;;15.57;5.15;;;11.10;99.90;;;;;;4978490;28;20257;-87
2020/12/20 01:35:51;;;;;;;16.98;4.72;;;11.20;99.90;;;;;;4944344;28;20262;-86
2020/12/20 01:38:18;;;;;;;8.93;4.88;;;11.10;99.90;;;;;;4970976;28;20205;-87
2020/12/20 01:40:54;;;;;;;15.70;5.03;;;11.10;99.90;;;;;;4976435;28;20627;-87
2020/12/20 01:43:20;;;;;;;21.70;5.10;;;11.20;99.90;;;;;;4976219;28;20246;-87
2020/12/20 01:45:46;;;;;;;16.42;4.63;;;11.20;99.90;;;;;;4974752;28;20167;-87
2020/12/20 01:48:19;;;;;;;13.77;4.97;;;11.10;99.90;;;;;;4976335;28;20185;-87
2020/12/20 01:50:45;;;;;;;16.25;4.95;;;11.20;99.90;;;;;;4959604;28;20215;-87
2020/12/20 01:53:14;;;;;;;18.65;4.90;;;11.10;99.90;;;;;;4972954;28;20208;-86
2020/12/20 01:55:43;;;;;;;14.82;4.78;;;11.10;99.90;;;;;;4958333;28;20202;-87
2020/12/20 01:58:09;;;;;;;16.88;5.65;;;11.10;99.90;;;;;;4973151;28;20202;-87
2020/12/20 02:00:35;;;;;;;21.88;5.82;;;11.10;99.90;;;;;;4956596;29;20186;-87
2020/12/20 02:03:01;;;;;;;21.83;7.05;;;11.10;99.90;;;;;;4972745;28;20175;-87
2020/12/20 02:05:27;;;;;;;21.35;4.93;;;11.10;99.90;;;;;;4956694;29;20206;-87
2020/12/20 02:07:53;;;;;;;16.17;4.90;;;11.10;99.90;;;;;;4972750;28;20230;-87
2020/12/20 02:10:18;;;;;;;13.60;4.20;;;11.10;99.90;;;;;;4956513;28;20171;-87
2020/12/20 02:12:45;;;;;;;16.77;5.30;;;11.10;99.90;;;;;;4988812;28;20683;-87
2020/12/20 02:15:13;;;;;;;12.70;4.57;;;11.10;99.90;;;;;;4959615;28;20246;-87
2020/12/20 02:17:38;;;;;;;16.70;4.38;;;11.20;99.90;;;;;;4975414;28;20606;-87
2020/12/20 02:20:05;;;;;;;16.58;4.63;;;11.10;99.90;;;;;;4943771;28;20186;-87
2020/12/20 02:22:32;;;;;;;10.20;4.32;;;11.10;99.90;;;;;;4975551;28;20692;-87
2020/12/20 02:24:58;;;;;;;12.18;5.13;;;11.10;99.90;;;;;;4959768;28;20205;-87
2020/12/20 02:27:24;;;;;;;20.65;4.93;;;11.10;99.90;;;;;;4943616;28;20178;-87
2020/12/20 02:29:50;;;;;;;15.90;5.55;;;11.10;99.90;;;;;;4975577;28;20209;-86
2020/12/20 02:32:15;;;;;;;24.38;5.80;;;11.10;99.90;;;;;;4959555;28;20265;-86
2020/12/20 02:34:41;;;;;;;13.48;4.45;;;11.00;99.90;;;;;;4943623;28;20182;-87
2020/12/20 02:37:06;;;;;;;15.68;4.38;;;11.00;99.90;;;;;;4943353;28;20201;-88
2020/12/20 02:39:32;;;;;;;19.92;4.90;;;11.10;99.90;;;;;;4942626;29;20189;-87
2020/12/20 02:41:58;;;;;;;21.80;4.80;;;11.10;99.90;;;;;;4956155;29;20181;-86
2020/12/20 02:44:24;;;;;;;12.18;4.97;;;11.10;99.90;;;;;;4942322;29;20195;-87
2020/12/20 02:46:49;;;;;;;17.77;5.20;;;11.10;99.90;;;;;;4969124;28;20205;-87
2020/12/20 02:49:15;;;;;;;18.45;6.18;;;11.10;99.90;;;;;;4983043;28;20187;-87
2020/12/20 02:51:41;;;;;;;24.30;4.60;;;11.10;99.90;;;;;;4969767;28;20213;-88
2020/12/20 02:54:07;;;;;;;10.60;4.43;;;11.00;99.90;;;;;;4958022;29;20181;-88
2020/12/20 02:56:32;;;;;;;19.65;4.50;;;11.00;99.90;;;;;;4956682;29;20518;-87
2020/12/20 02:58:58;;;;;;;17.00;5.30;;;11.10;99.90;;;;;;4940338;29;20561;-86
2020/12/20 03:01:23;;;;;;;13.93;4.93;;;11.20;99.90;;;;;;4939858;29;20183;-87
2020/12/20 03:03:49;;;;;;;21.63;5.18;;;11.20;99.90;;;;;;4957543;29;20205;-87
2020/12/20 03:06:15;;;;;;;15.23;4.85;;;11.20;99.90;;;;;;4974468;29;20258;-87
2020/12/20 03:08:41;;;;;;;16.95;4.50;;;11.20;99.90;;;;;;4961948;28;20625;-87
2020/12/20 03:11:06;;;;;;;16.73;4.70;;;11.20;99.90;;;;;;4955734;29;20225;-87
2020/12/20 03:13:32;;;;;;;21.77;5.03;;;11.20;99.90;;;;;;4939742;29;20179;-88
2020/12/20 03:15:58;;;;;;;18.85;4.78;;;11.20;99.90;;;;;;4941486;29;20325;-86
2020/12/20 03:18:23;;;;;;;13.68;3.58;;;11.20;99.90;;;;;;4979616;28;20195;-90
2020/12/20 03:20:49;;;;;;;21.48;4.35;;;11.20;99.90;;;;;;4963580;29;20175;-90
2020/12/20 03:23:15;;;;;;;19.95;5.20;;;11.20;99.90;;;;;;4979590;28;20166;-90
2020/12/20 03:25:40;;;;;;;23.95;6.53;;;11.10;99.90;;;;;;4979360;28;20155;-85
2020/12/20 03:28:06;;;;;;;17.52;4.32;;;11.00;99.90;;;;;;4969070;29;20183;-87
2020/12/20 03:30:31;;;;;;;14.82;4.03;;;11.10;99.90;;;;;;4957372;29;20273;-87
2020/12/20 03:32:57;;;;;;;20.73;4.47;;;11.10;99.90;;;;;;4924935;29;20220;-88
2020/12/20 03:35:23;;;;;;;14.40;4.00;;;11.10;99.90;;;;;;4956103;29;20536;-88
2020/12/20 03:37:53;;;;;;;20.30;5.10;;;11.10;99.90;;;;;;4940840;28;20202;-87
2020/12/20 03:40:21;;;;;;;12.07;3.92;;;11.10;99.90;;;;;;4975536;28;20248;-87
2020/12/20 03:42:47;;;;;;;24.75;4.70;;;11.10;99.90;;;;;;4974894;28;20204;-87
2020/12/20 03:45:14;;;;;;;18.52;4.55;;;11.10;99.90;;;;;;4974363;28;20182;-86
2020/12/20 03:47:40;;;;;;;23.98;4.45;;;11.20;99.90;;;;;;4958335;28;20651;-87
2020/12/20 03:50:06;;;;;;;16.05;4.25;;;11.20;99.90;;;;;;4958276;28;20178;-87
2020/12/20 03:52:31;;;;;;;19.05;5.10;;;11.20;99.90;;;;;;4958057;28;20170;-86
2020/12/20 03:54:57;;;;;;;20.88;5.03;;;11.10;99.90;;;;;;4942141;28;20182;-87
2020/12/20 03:57:22;;;;;;;20.33;4.82;;;11.20;99.90;;;;;;4942292;28;20297;-87
2020/12/20 03:59:48;;;;;;;16.08;4.68;;;11.20;99.90;;;;;;4958267;28;20256;-87
2020/12/20 04:02:14;;;;;;;27.77;5.30;;;11.20;99.90;;;;;;4974368;28;20173;-87
2020/12/20 04:04:39;;;;;;;17.98;5.20;;;11.20;99.90;;;;;;4974130;28;20182;-86
2020/12/20 04:07:05;;;;;;;24.83;5.78;;;11.20;99.90;;;;;;4974258;28;20178;-87
2020/12/20 04:09:31;;;;;;;25.73;4.82;;;11.10;99.90;;;;;;4974640;28;20178;-87
2020/12/20 04:11:56;;;;;;;21.27;4.75;;;11.20;99.90;;;;;;4979225;28;20178;-87
2020/12/20 04:14:22;;;;;;;28.08;5.97;;;11.10;99.90;;;;;;4978104;28;20178;-87
2020/12/20 04:16:48;;;;;;;17.23;4.80;;;11.10;99.90;;;;;;4979604;28;20623;-88
2020/12/20 04:19:14;;;;;;;28.05;5.45;;;11.10;99.90;;;;;;4961821;28;20660;-87
2020/12/20 04:21:40;;;;;;;17.85;5.78;;;11.00;99.90;;;;;;4946341;28;20178;-87
2020/12/20 04:24:06;;;;;;;19.38;5.38;;;11.00;99.90;;;;;;4945801;28;20619;-87
2020/12/20 04:26:31;;;;;;;25.33;5.47;;;11.00;99.90;;;;;;4945983;28;20174;-87
2020/12/20 04:28:57;;;;;;;20.67;4.82;;;10.90;99.90;;;;;;4978972;28;20363;-88
2020/12/20 04:31:24;;;;;;;27.08;5.72;;;10.80;99.90;;;;;;4961708;28;20568;-88
2020/12/20 04:33:50;;;;;;;18.77;5.43;;;10.90;99.90;;;;;;4961699;28;20170;-87
2020/12/20 04:36:16;;;;;;;16.80;5.95;;;10.90;99.90;;;;;;4977578;28;20214;-86
2020/12/20 04:38:42;;;;;;;16.17;5.78;;;10.80;99.90;;;;;;4961291;28;20255;-87
2020/12/20 04:41:09;;;;;;;18.80;6.43;;;10.70;99.90;;;;;;4979013;28;20209;-87
2020/12/20 04:43:35;;;;;;;26.95;5.43;;;10.70;99.90;;;;;;4961566;28;20186;-87
2020/12/20 04:46:03;;;;;;;23.77;6.00;;;10.70;99.90;;;;;;4977539;28;20638;-87
2020/12/20 04:48:36;;;;;;;23.88;6.35;;;10.70;99.90;;;;;;4961340;28;20240;-87
2020/12/20 04:51:06;;;;;;;19.45;5.40;;;10.70;99.90;;;;;;4977452;28;20173;-87
2020/12/20 04:53:33;;;;;;;25.35;5.82;;;10.70;99.90;;;;;;4977387;28;20240;-87
2020/12/20 04:56:03;;;;;;;26.30;5.93;;;10.70;99.90;;;;;;4977370;28;20189;-88
2020/12/20 04:58:29;;;;;;;26.20;5.90;;;10.70;99.90;;;;;;4977120;28;20194;-86
2020/12/20 05:00:55;;;;;;;25.20;6.35;;;10.60;99.90;;;;;;4961384;28;20182;-86
2020/12/20 05:03:20;;;;;;;29.23;5.90;;;10.70;99.90;;;;;;4977040;28;20174;-87
2020/12/20 05:05:46;;;;;;;24.65;5.50;;;10.70;99.90;;;;;;4961133;28;20178;-86
2020/12/20 05:08:14;;;;;;;25.25;6.53;;;10.70;99.90;;;;;;4967364;28;20652;-86
2020/12/20 05:10:41;;;;;;;19.67;5.22;;;10.70;99.90;;;;;;4978750;28;20174;-87
2020/12/20 05:13:07;;;;;;;29.27;5.38;;;10.60;99.90;;;;;;4996797;28;20238;-87
2020/12/20 05:15:33;;;;;;;32.08;5.70;;;10.50;99.90;;;;;;4996621;28;20173;-87
2020/12/20 05:18:09;;;;;;;25.67;5.97;;;10.50;99.90;;;;;;4987633;28;20202;-89
2020/12/20 05:20:43;;;;;;;19.98;5.22;;;10.40;99.90;;;;;;4961132;28;20162;-87
2020/12/20 05:23:10;;;;;;;26.08;5.50;;;10.40;99.90;;;;;;4976960;28;20162;-87
2020/12/20 05:25:37;;;;;;;26.15;5.18;;;10.40;99.90;;;;;;4978006;28;20173;-87
2020/12/20 05:28:10;;;;;;;21.20;4.72;;;10.40;99.90;;;;;;4945527;28;20181;-87
2020/12/20 05:30:38;;;;;;;34.20;4.78;;;10.40;99.90;;;;;;4995363;28;20181;-89
2020/12/20 05:33:04;;;;;;;27.48;5.03;;;10.50;99.90;;;;;;4996402;28;20238;-87
2020/12/20 05:35:30;;;;;;;18.23;4.57;;;10.40;99.90;;;;;;4965567;28;20185;-87
2020/12/20 05:37:56;;;;;;;16.15;4.55;;;10.40;99.90;;;;;;4976586;28;20206;-87
2020/12/20 05:40:25;;;;;;;30.60;4.60;;;10.40;99.90;;;;;;4976508;28;20545;-88
2020/12/20 05:42:59;;;;;;;18.92;4.05;;;10.40;99.90;;;;;;4977706;28;20174;-87
2020/12/20 05:45:28;;;;;;;30.88;6.43;;;10.30;99.90;;;;;;4977846;28;20181;-87
2020/12/20 05:47:55;;;;;;;22.80;5.82;;;10.40;99.90;;;;;;4959322;28;20179;-86
2020/12/20 05:50:20;;;;;;;19.42;5.32;;;10.40;99.90;;;;;;4957313;29;20171;-87
2020/12/20 05:53:04;;;;;;;25.13;5.18;;;10.40;99.90;;;;;;4958131;29;20198;-86
2020/12/20 05:55:38;;;;;;;31.95;5.32;;;10.40;99.90;;;;;;4941159;29;20183;-87
2020/12/20 05:58:11;;;;;;;22.60;5.25;;;10.10;99.90;;;;;;4940717;29;20349;-87
2020/12/20 06:00:37;;;;;;;21.02;5.95;;;10.10;99.90;;;;;;4956933;28;20178;-88
2020/12/20 06:03:04;;;;;;;30.70;5.20;;;10.10;99.90;;;;;;4957846;28;20171;-87
2020/12/20 06:05:37;;;;;;;29.90;5.90;;;10.10;99.90;;;;;;4956913;29;20183;-87
2020/12/20 06:08:08;;;;;;;17.80;5.22;;;10.00;99.90;;;;;;4956763;29;20173;-87
2020/12/20 06:10:45;;;;;;;26.70;6.22;;;10.00;99.90;;;;;;4956707;28;20175;-87
2020/12/20 06:13:12;;;;;;;36.15;6.25;;;10.10;99.90;;;;;;4968659;28;20627;-87
2020/12/20 06:15:42;;;;;;;28.15;5.40;;;10.00;99.90;;;;;;4992251;28;20585;-87
2020/12/20 06:18:14;;;;;;;34.60;6.20;;;10.10;99.90;;;;;;4959687;28;20217;-86
2020/12/20 06:20:58;;;;;;;36.28;7.07;;;10.00;99.90;;;;;;4975880;28;20184;-87
2020/12/20 06:23:25;;;;;;;25.92;6.20;;;10.00;99.90;;;;;;4975725;28;20196;-87
2020/12/20 06:25:52;;;;;;;22.00;5.68;;;10.10;99.90;;;;;;4975569;28;20174;-87
2020/12/20 06:28:21;;;;;;;42.65;7.20;;;10.10;99.90;;;;;;4959705;28;20218;-87
2020/12/20 06:30:47;;;;;;;22.35;5.70;;;10.00;99.90;;;;;;4975651;28;20219;-87
2020/12/20 06:33:31;;;;;;;21.08;5.07;;;10.00;99.90;;;;;;4958831;28;20202;-87
2020/12/20 06:35:56;;;;;;;25.88;5.97;;;10.00;99.90;;;;;;4975453;28;20627;-86
2020/12/20 06:38:24;;;;;;;24.58;6.05;;;10.00;99.90;;;;;;4975148;28;20230;-86
2020/12/20 06:40:50;;;;;;;32.83;6.22;;;10.00;99.90;;;;;;4974995;28;20232;-89
2020/12/20 06:43:34;;;;;;;22.05;5.35;;;10.00;99.90;;;;;;4975255;28;20535;-87
2020/12/20 06:46:01;;;;;;;33.08;6.40;;;10.10;99.90;;;;;;4975147;28;20261;-87
2020/12/20 06:48:35;;;;;;;37.45;6.05;;;10.10;99.90;;;;;;4975303;28;20233;-87
2020/12/20 06:51:03;;;;;;;37.65;5.28;;;10.00;99.90;;;;;;4991351;28;20161;-87
2020/12/20 06:53:49;;;;;;;22.83;4.70;;;10.10;99.90;;;;;;4976299;28;20163;-87
2020/12/20 06:56:23;;;;;;;39.03;5.18;;;10.10;99.90;;;;;;4977296;28;20170;-88
2020/12/20 06:58:50;;;;;;;19.70;4.43;;;10.00;99.90;;;;;;4994487;28;20594;-86
2020/12/20 07:01:39;;;;;;;28.38;5.32;;;10.10;99.90;;;;;;4961542;28;20178;-86
2020/12/20 07:04:14;;;;;;;21.73;4.43;;;10.10;99.90;;;;;;4978051;28;20158;-87
2020/12/20 07:06:40;;;;;;;23.58;4.85;;;10.10;99.90;;;;;;4977083;28;20193;-87
2020/12/20 07:09:07;;;;;;;22.60;4.22;;;10.00;99.90;;;;;;4975693;28;20186;-87
2020/12/20 07:11:41;;;;;;;20.33;5.13;;;10.10;99.90;;;;;;4976727;28;20233;-86
2020/12/20 07:14:23;;;;;;;26.77;5.22;;;10.10;99.90;;;;;;4976988;28;20641;-87
2020/12/20 07:16:50;;;;;;;36.22;5.22;;;10.10;99.90;;;;;;4979452;28;20532;-87
2020/12/20 07:19:23;;;;;;;20.45;4.72;;;10.20;99.90;;;;;;4958897;28;20237;-86
2020/12/20 07:22:00;;;;;;;40.55;6.00;;;10.20;99.90;;;;;;4978260;28;20240;-84
2020/12/20 07:24:31;;;;;;;28.73;5.15;;;10.10;99.90;;;;;;4977415;28;20174;-85
2020/12/20 07:27:00;;;;;;;31.88;5.85;;;10.10;99.90;;;;;;4962093;28;20181;-85
2020/12/20 07:29:27;;;;;;;31.60;5.13;;;10.10;99.90;;;;;;4976562;28;20178;-86
2020/12/20 07:31:55;;;;;;;31.52;4.95;;;10.20;99.90;;;;;;4975278;28;20541;-87
2020/12/20 07:34:23;;;;;;;23.10;4.80;;;10.20;99.90;;;;;;4960699;28;20174;-85
2020/12/20 07:36:48;;;;;;;28.27;4.93;;;10.10;99.90;;;;;;4977543;28;20174;-85
2020/12/20 07:39:14;;;;;;;24.63;5.55;;;10.10;99.90;;;;;;4970199;29;20203;-85
2020/12/20 07:41:40;;;;;;;40.00;6.75;;;10.10;99.90;;;;;;4973758;29;20186;-88
2020/12/20 07:44:10;;;;;;;21.75;4.20;;;10.10;99.90;;;;;;4971836;28;20197;-87
2020/12/20 07:46:37;;;;;;;35.33;5.97;;;10.00;99.90;;;;;;4955672;29;20655;-87
2020/12/20 07:49:05;;;;;;;26.08;4.88;;;10.00;99.90;;;;;;4955998;29;20190;-86
2020/12/20 07:51:31;;;;;;;21.73;4.10;;;10.00;99.90;;;;;;4956133;29;20210;-87
2020/12/20 07:53:58;;;;;;;25.92;5.03;;;10.00;99.90;;;;;;4957060;28;20175;-87
2020/12/20 07:56:30;;;;;;;21.45;4.78;;;10.00;99.90;;;;;;4968780;29;20202;-77
2020/12/20 07:58:58;;;;;;;27.88;5.20;;;10.00;99.90;;;;;;4960155;29;20266;-76
2020/12/20 08:01:24;;;;;;;28.75;5.32;;;10.10;99.90;;;;;;4958445;29;20267;-76
2020/12/20 08:04:19;;;;;;;31.20;5.68;;;10.00;99.90;;;;;;4954155;29;20202;-75
2020/12/20 08:06:47;;;;;;;25.20;5.47;;;10.00;99.90;;;;;;4958311;28;20182;-76
2020/12/20 08:09:12;;;;;;;26.48;4.65;;;10.00;99.90;;;;;;4973198;28;20170;-75
2020/12/20 08:11:39;;;;;;;25.30;5.43;;;9.90;99.90;;;;;;4973161;28;20240;-76
2020/12/20 08:14:09;;;;;;;27.33;5.60;;;9.90;99.90;;;;;;4973334;28;20574;-76
2020/12/20 08:16:37;;;;;;;32.95;4.68;;;9.90;99.90;;;;;;4974407;28;20174;-76
2020/12/20 08:19:09;;;;;;;38.58;6.03;;;10.00;99.90;;;;;;4974638;28;20205;-76
2020/12/20 08:22:12;;;;;;;29.55;4.65;;;10.10;99.90;;;;;;4974916;28;20257;-76
2020/12/20 08:24:40;;;;;;;38.03;5.25;;;10.20;99.90;;;;;;4973574;28;20642;-76
2020/12/20 08:27:13;;;;;;;24.75;4.97;;;10.30;99.90;;;;;;4974764;28;20196;-76
2020/12/20 08:29:39;;;;;;;28.30;5.65;;;10.40;99.90;;;;;;4974941;28;20245;-74
2020/12/20 08:32:16;;;;;;;31.52;4.32;;;10.40;99.90;;;;;;4973659;28;20566;-74
2020/12/20 08:34:43;;;;;;;39.47;5.15;;;10.50;99.90;;;;;;4974679;28;20158;-74
2020/12/20 08:37:21;;;;;;;27.17;5.50;;;10.60;99.90;;;;;;4973039;28;20174;-74
2020/12/20 08:39:47;;;;;;;28.25;4.88;;;10.70;99.90;;;;;;4974932;28;20202;-74
2020/12/20 08:42:15;;;;;;;27.95;5.00;;;10.70;99.90;;;;;;4974829;28;20202;-75
2020/12/20 08:44:42;;;;;;;27.35;6.28;;;10.70;99.90;;;;;;4972893;28;20520;-76
2020/12/20 08:47:19;;;;;;;27.48;4.85;;;10.70;99.90;;;;;;4976744;28;20178;-77
2020/12/20 08:49:58;;;;;;;28.63;5.30;;;10.80;99.90;;;;;;4968621;28;20193;-76
2020/12/20 08:52:28;;;;;;;24.27;5.30;;;10.80;99.90;;;;;;4973200;28;20170;-77
2020/12/20 08:54:55;;;;;;;26.42;5.28;;;10.90;99.90;;;;;;4938368;29;20597;-76
2020/12/20 08:57:25;;;;;;;22.15;4.78;;;10.90;99.90;;;;;;4958276;28;20177;-76
2020/12/20 08:59:51;;;;;;;26.85;4.93;;;11.00;99.90;;;;;;4958657;28;20194;-76
2020/12/20 09:02:24;;;;;;;32.42;5.13;;;10.90;99.90;;;;;;4958729;28;20171;-76
2020/12/20 09:05:04;;;;;;;22.23;4.50;;;10.90;99.90;;;;;;4972091;28;20265;-76
2020/12/20 09:07:32;;;;;;;34.75;4.85;;;10.90;99.90;;;;;;4958892;28;20178;-75
2020/12/20 09:10:03;;;;;;;32.83;4.38;;;10.90;99.90;;;;;;4971298;28;20174;-76
2020/12/20 09:12:29;;;;;;;30.10;5.03;;;11.00;99.90;;;;;;4965795;28;20643;-76
2020/12/20 09:14:59;;;;;;;26.80;4.70;;;11.20;99.90;;;;;;4975903;28;20182;-77
2020/12/20 09:17:32;;;;;;;20.63;4.57;;;11.30;99.90;;;;;;4977272;28;20893;-76
2020/12/20 09:19:59;;;;;;;27.23;5.05;;;11.30;99.90;;;;;;4976543;28;20205;-76
2020/12/20 09:22:37;;;;;;;19.70;4.60;;;11.40;99.90;;;;;;4977480;28;20212;-76
2020/12/20 09:25:03;;;;;;;24.40;4.50;;;11.30;99.90;;;;;;4976805;28;20636;-76
2020/12/20 09:27:29;;;;;;;21.60;4.30;;;11.20;99.90;;;;;;4975972;28;20193;-76
2020/12/20 09:29:54;;;;;;;29.25;5.22;;;11.30;99.90;;;;;;4977620;28;20608;-76
2020/12/20 09:32:20;;;;;;;24.08;4.47;;;11.30;99.90;;;;;;4977413;28;20174;-76
2020/12/20 09:34:46;;;;;;;30.45;4.90;;;11.50;99.90;;;;;;4959184;28;20193;-76
2020/12/20 09:37:11;;;;;;;39.78;5.60;;;12.10;99.90;;;;;;4975682;28;20654;-76
2020/12/20 09:39:57;;;;;;;16.92;5.45;;;12.60;99.90;;;;;;4960066;28;20186;-76
2020/12/20 09:42:22;;;;;;;24.92;4.78;;;12.80;99.90;;;;;;4977355;28;20261;-76
2020/12/20 09:44:48;;;;;;;25.30;4.28;;;13.30;99.90;;;;;;4977000;28;20333;-76
2020/12/20 09:47:14;;;;;;;18.83;4.07;;;14.30;99.90;;;;;;4976551;28;20194;-77
2020/12/20 09:49:40;;;;;;;28.92;4.25;;;14.70;99.90;;;;;;4967192;28;20194;-76
2020/12/20 13:19:06;;;;;;;30.65;3.78;;;11.40;99.90;;;;;;5114115;27;20980;-76
2020/12/20 13:21:32;;;;;;;17.55;3.47;;;11.40;99.90;;;;;;5066102;28;20179;-75
2020/12/20 13:23:58;;;;;;;16.90;2.75;;;11.50;99.90;;;;;;5088948;28;20212;-76
2020/12/20 13:26:23;;;;;;;26.30;3.58;;;11.70;99.90;;;;;;5069544;28;20174;-75
2020/12/20 13:28:49;;;;;;;21.15;3.30;;;11.90;99.90;;;;;;5083986;28;20667;-78
2020/12/20 13:31:22;;;;;;;26.88;4.00;;;12.10;99.90;;;;;;5084769;28;20170;-75
2020/12/20 13:33:50;;;;;;;22.27;3.45;;;12.30;99.90;;;;;;5075013;28;20179;-75
2020/12/20 13:36:17;;;;;;;16.17;3.10;;;12.40;99.90;;;;;;5073464;28;20666;-75
2020/12/20 13:38:43;;;;;;;19.52;3.22;;;12.50;99.90;;;;;;5069629;28;20290;-75
2020/12/20 13:41:12;;;;;;;26.90;4.13;;;12.60;99.90;;;;;;5059741;28;20270;-75
2020/12/20 13:43:38;;;;;;;21.25;4.22;;;12.80;99.90;;;;;;5087828;28;20239;-75
2020/12/20 13:46:03;;;;;;;22.10;4.00;;;13.00;99.90;;;;;;5089060;28;20636;-75
2020/12/20 13:48:29;;;;;;;27.80;4.28;;;13.20;99.90;;;;;;5067348;28;20194;-75
2020/12/20 13:50:54;;;;;;;30.02;3.90;;;13.20;99.90;;;;;;5078628;28;20520;-74
2020/12/20 13:53:21;;;;;;;12.77;3.60;;;13.10;99.90;;;;;;5077830;28;20198;-75
2020/12/20 13:55:48;;;;;;;15.70;3.58;;;13.00;99.90;;;;;;5088677;28;20623;-75
2020/12/20 13:58:16;;;;;;;15.85;3.58;;;12.80;99.90;;;;;;5087682;28;20281;-76
2020/12/20 14:00:41;;;;;;;21.08;3.53;;;12.60;99.90;;;;;;5083625;28;20181;-75
2020/12/20 14:03:07;;;;;;;23.13;4.57;;;12.40;99.90;;;;;;5084574;28;20178;-76
2020/12/20 14:05:33;;;;;;;23.63;4.55;;;12.30;99.90;;;;;;5089544;28;20183;-75
2020/12/20 14:07:59;;;;;;;34.15;3.78;;;12.30;99.90;;;;;;5091061;28;20178;-76
2020/12/20 14:10:25;;;;;;;21.25;3.90;;;12.50;99.90;;;;;;5083844;28;20180;-75
2020/12/20 14:12:51;;;;;;;25.13;4.40;;;12.50;99.90;;;;;;5080184;28;20167;-75
2020/12/20 14:15:16;;;;;;;15.02;4.40;;;12.40;99.90;;;;;;5083835;28;20582;-75
2020/12/20 14:17:42;;;;;;;29.58;4.20;;;12.50;99.90;;;;;;5087260;28;20230;-75
2020/12/20 14:20:11;;;;;;;23.40;4.53;;;12.60;99.90;;;;;;5071229;28;20174;-76
2020/12/20 14:22:38;;;;;;;24.95;5.13;;;12.60;99.90;;;;;;5088481;28;20174;-76
2020/12/20 14:25:04;;;;;;;27.20;3.90;;;12.60;99.90;;;;;;5091087;28;20226;-76
2020/12/20 14:27:31;;;;;;;13.88;3.40;;;12.60;99.90;;;;;;5082346;28;20269;-76
2020/12/20 14:29:57;;;;;;;28.08;3.72;;;12.50;99.90;;;;;;5059617;28;20180;-76
2020/12/20 14:32:23;;;;;;;18.60;4.22;;;12.40;99.90;;;;;;5075387;28;20170;-76
2020/12/20 14:34:49;;;;;;;13.65;3.40;;;12.30;99.90;;;;;;5075197;28;20171;-76
2020/12/20 14:37:14;;;;;;;17.38;3.88;;;12.30;99.90;;;;;;5074801;28;20202;-75
2020/12/20 14:39:42;;;;;;;22.23;3.55;;;12.20;99.90;;;;;;5053509;28;20562;-76
2020/12/20 14:42:11;;;;;;;29.27;3.80;;;12.10;99.90;;;;;;5054166;28;20276;-76
2020/12/20 14:44:40;;;;;;;15.55;3.85;;;12.00;99.90;;;;;;5071400;28;20163;-76
2020/12/20 14:47:05;;;;;;;30.92;4.10;;;11.80;99.90;;;;;;5040378;28;20537;-75
2020/12/20 14:49:31;;;;;;;17.70;3.97;;;11.70;99.90;;;;;;5054458;28;20166;-75
2020/12/20 14:51:57;;;;;;;19.30;2.97;;;11.60;99.90;;;;;;5064324;28;20179;-76
2020/12/20 14:54:26;;;;;;;18.73;3.20;;;11.60;99.90;;;;;;5074139;28;20173;-76
2020/12/20 14:56:52;;;;;;;16.98;3.22;;;11.50;99.90;;;;;;5073205;28;20182;-75
2020/12/20 14:59:18;;;;;;;13.68;3.40;;;11.50;99.90;;;;;;5074033;28;20163;-76
2020/12/20 15:01:50;;;;;;;22.60;3.33;;;11.40;99.90;;;;;;5069516;28;20221;-75
2020/12/20 15:04:16;;;;;;;24.45;3.95;;;11.30;99.90;;;;;;5070566;28;20185;-74
2020/12/20 15:06:42;;;;;;;20.25;3.20;;;11.20;99.90;;;;;;5057150;28;20224;-75
2020/12/20 15:09:09;;;;;;;23.00;3.38;;;11.10;99.90;;;;;;5037988;28;20274;-75
2020/12/20 15:11:34;;;;;;;15.43;3.75;;;11.00;99.90;;;;;;5056541;28;20179;-76
2020/12/20 15:14:01;;;;;;;17.33;2.97;;;11.00;99.90;;;;;;5057808;28;20178;-76
2020/12/20 15:16:27;;;;;;;19.20;4.10;;;11.00;99.90;;;;;;5072777;28;20179;-76
2020/12/20 15:18:52;;;;;;;22.65;3.72;;;10.90;99.90;;;;;;5052678;28;20233;-76
2020/12/20 15:21:18;;;;;;;22.17;3.60;;;10.90;99.90;;;;;;5067870;28;20190;-77
2020/12/20 15:23:44;;;;;;;19.93;3.73;;;10.80;99.90;;;;;;5060299;28;20415;-75
2020/12/20 15:26:10;;;;;;;20.45;3.08;;;10.70;99.90;;;;;;5075216;28;20205;-75
2020/12/20 15:28:37;;;;;;;23.25;3.65;;;10.70;99.90;;;;;;5054670;28;20241;-76
2020/12/20 15:31:05;;;;;;;20.95;3.63;;;10.70;99.90;;;;;;5067312;28;20177;-76
2020/12/20 15:33:30;;;;;;;27.85;5.57;;;10.60;99.90;;;;;;5059404;28;20176;-75
2020/12/20 15:35:56;;;;;;;17.85;4.10;;;10.60;99.90;;;;;;5053107;28;20501;-75
2020/12/20 15:38:22;;;;;;;21.85;3.10;;;10.50;99.90;;;;;;5070284;28;20230;-76
2020/12/20 15:40:47;;;;;;;21.15;3.15;;;10.50;99.90;;;;;;5064908;28;20183;-76
2020/12/20 15:43:13;;;;;;;16.55;3.05;;;10.40;99.90;;;;;;5053275;28;20171;-76
2020/12/20 15:45:39;;;;;;;17.33;3.70;;;10.40;99.90;;;;;;5054083;28;20224;-76
2020/12/20 15:48:04;;;;;;;22.42;3.70;;;10.30;99.90;;;;;;5058247;28;20190;-75
2020/12/20 15:50:30;;;;;;;20.35;3.65;;;10.30;99.90;;;;;;5056310;28;20186;-75
2020/12/20 15:52:57;;;;;;;17.77;3.40;;;10.20;99.90;;;;;;5071553;28;20175;-75
2020/12/20 15:55:22;;;;;;;22.05;3.22;;;10.20;99.90;;;;;;5073428;28;20171;-75
2020/12/20 15:57:48;;;;;;;17.30;4.18;;;10.20;99.90;;;;;;5060142;28;20207;-75
2020/12/20 16:00:14;;;;;;;7.38;2.97;;;10.10;99.90;;;;;;5071621;28;20668;-76
2020/12/20 16:02:40;;;;;;;13.48;3.20;;;10.10;99.90;;;;;;5073225;28;20178;-73
2020/12/20 16:05:05;;;;;;;19.15;4.45;;;10.00;99.90;;;;;;5074090;28;20178;-74
2020/12/20 16:07:31;;;;;;;23.33;5.03;;;9.90;99.90;;;;;;5053636;28;20185;-74